Flight Track Log - Related Links

Times and Time Zones

All times are in EDT time to prevent confusion due to time zone crossing. See the N924AK flight status page for this flight to view local times or setup timezone preferences in your user account.

Time Position Orientation Groundspeed Altitude Reporting Facility
EDT Latitude Longitude Course Direction KTS MPH feet Rate Location/Type
Sat 08:00:17 PM 27.4167 -82.5667 270° West 166 191 700  Level Tampa TRACON
Sat 08:00:59 PM 27.4167 -82.6167 270° West 212 244 2,100 2,412 Climbing Tampa TRACON
Sat 08:01:59 PM 27.4000 -82.6667 249° West 240 276 4,800 2,856 Climbing Tampa TRACON
Sat 08:04:27 PM 27.4514 -82.8586 287° West 254 292 12,000 2,769 Climbing Miami Center
Sat 08:05:27 PM 27.5325 -82.8653 356° North 239 275 14,400 1,844 Climbing Miami Center
Sat 08:07:52 PM 27.7494 -82.8200 10° North 307 353 18,300 1,493 Climbing Jacksonville Center
Sat 08:08:52 PM 27.8600 -82.7964 11° North 362 417 19,500 1,400 Climbing Jacksonville Center
Sat 08:09:52 PM 27.9767 -82.7869 North 398 458 21,100 1,550 Climbing Jacksonville Center
Sat 08:10:52 PM 28.0936 -82.7867 360° North 412 474 22,600 1,500 Climbing Jacksonville Center
Sat 08:11:52 PM 28.2167 -82.7794 North 425 489 24,100 1,550 Climbing Jacksonville Center
Sat 08:12:52 PM 28.3356 -82.7653 North 425 489 25,700 1,550 Climbing Jacksonville Center
Sat 08:13:52 PM 28.4544 -82.7556 North 425 489 27,200 1,500 Climbing Jacksonville Center
Sat 08:14:52 PM 28.5733 -82.7436 North 425 489 28,700 1,350 Climbing Jacksonville Center
Sat 08:15:52 PM 28.6675 -82.7364 North 425 489 29,900 1,500 Climbing Jacksonville Center
Sat 08:16:52 PM 28.8072 -82.7197 North 425 489 31,700 1,550 Climbing Jacksonville Center
Sat 08:17:52 PM 28.9261 -82.7075 North 425 489 33,000 1,050 Climbing Jacksonville Center
Sat 08:18:52 PM 29.0472 -82.6956 North 425 489 33,800 500 Climbing Jacksonville Center
Sat 08:19:52 PM 29.1725 -82.6833 North 431 496 34,000 100 Climbing Jacksonville Center
Sat 08:20:52 PM 29.3039 -82.6711 North 451 519 34,000  Level Jacksonville Center
Sat 08:21:52 PM 29.4292 -82.6589 North 456 525 34,000  Level Jacksonville Center
Sat 08:22:52 PM 29.5586 -82.6492 North 462 532 34,000  Level Jacksonville Center
Sat 08:23:52 PM 29.6711 -82.6319 North 452 520 34,000  Level Jacksonville Center
Sat 08:24:52 PM 29.7986 -82.6197 North 457 526 34,000 700 Level Jacksonville Center
Sat 08:25:52 PM 29.9217 -82.5833 14° North 457 526 35,400 1,450 Climbing Jacksonville Center
Sat 08:26:52 PM 30.0511 -82.5397 16° North 444 511 36,900 800 Climbing Jacksonville Center
Sat 08:27:52 PM 30.1697 -82.4936 19° North 438 504 37,000 50 Climbing Jacksonville Center
Sat 08:28:52 PM 30.2928 -82.4475 18° North 445 512 37,000  Level Jacksonville Center
Sat 08:29:52 PM 30.4158 -82.4061 16° North 451 519 37,000  Level Jacksonville Center
Sat 08:30:52 PM 30.5389 -82.3572 19° North 457 526 37,000  Level Jacksonville Center
Sat 08:31:52 PM 30.6494 -82.3178 17° North 462 532 37,000  Level Jacksonville Center
Sat 08:32:52 PM 30.7725 -82.2689 19° North 462 532 37,000 300 Level Jacksonville Center
Sat 08:33:52 PM 30.8953 -82.2219 18° North 462 532 37,600 800 Climbing Jacksonville Center
Sat 08:34:52 PM 31.0078 -82.1656 23° Northeast 456 525 38,600 700 Climbing Jacksonville Center
Sat 08:35:52 PM 31.1222 -82.1136 21° North 445 512 39,000 200 Climbing Jacksonville Center
Sat 08:36:52 PM 31.2389 -82.0542 24° Northeast 445 512 39,000 200 Level Jacksonville Center
Sat 08:37:52 PM 31.3575 -81.9947 23° Northeast 450 518 39,400 500 Climbing Jacksonville Center
Sat 08:38:52 PM 31.4781 -81.9303 25° Northeast 439 505 40,000 300 Climbing Jacksonville Center
Sat 08:39:52 PM 31.5967 -81.8731 22° Northeast 439 505 40,000  Level Jacksonville Center
Sat 08:40:52 PM 31.6986 -81.8206 24° Northeast 446 513 40,000 200 Level Jacksonville Center
Sat 08:41:52 PM 31.8275 -81.7581 22° Northeast 446 513 40,400 450 Climbing Jacksonville Center
Sat 08:42:52 PM 31.9397 -81.7003 24° Northeast 441 507 40,900 300 Climbing Jacksonville Center
Sat 08:43:52 PM 32.0394 -81.6500 23° Northeast 434 499 41,000 50 Climbing Jacksonville Center
Sat 08:44:52 PM 32.1661 -81.5869 23° Northeast 445 512 41,000  Level Jacksonville Center
Sat 08:45:52 PM 32.2783 -81.5314 23° Northeast 442 509 41,000  Level Jacksonville Center
Sat 08:46:52 PM 32.3842 -81.4781 23° Northeast 442 509 41,000  Level Jacksonville Center
Sat 08:47:52 PM 32.5064 -81.4072 26° Northeast 444 511 41,000  Level Jacksonville Center
Sat 08:48:52 PM 32.6058 -81.3414 29° Northeast 444 511 41,000  Level Jacksonville Center
Sat 08:49:52 PM 32.7156 -81.2681 29° Northeast 454 522 41,000  Level Jacksonville Center
Sat 08:50:52 PM 32.8253 -81.1967 29° Northeast 454 522 41,000 -50 Level Jacksonville Center
Sat 08:51:52 PM 32.9369 -81.1228 29° Northeast 454 522 40,900  Descending Jacksonville Center
Sat 08:52:52 PM 33.0486 -81.0489 29° Northeast 454 522 41,000 50 Climbing Jacksonville Center
Sat 08:53:52 PM 33.1581 -80.9744 30° Northeast 454 522 41,000  Level Jacksonville Center
Sat 08:54:52 PM 33.2678 -80.9028 29° Northeast 454 522 41,000  Level Jacksonville Center
Sat 08:55:52 PM 33.3792 -80.8256 30° Northeast 454 522 41,000  Level Jacksonville Center
Sat 08:56:52 PM 33.5031 -80.7456 28° Northeast 454 522 41,000  Level Jacksonville Center
Sat 08:57:52 PM 33.6125 -80.6731 29° Northeast 454 522 41,000  Level Jacksonville Center
Sat 08:58:52 PM 33.7217 -80.5978 30° Northeast 454 522 41,000  Level Jacksonville Center
Sat 08:59:52 PM 33.8331 -80.5225 29° Northeast 454 522 41,000  Level Jacksonville Center
Sat 09:01:42 PM 34.0208 -80.3972 29° Northeast 429 494 41,000  Level Washington Center
Sat 09:02:39 PM 34.1264 -80.3206 31° Northeast 445 512 41,000  Level Washington Center
Sat 09:03:41 PM 34.2356 -80.2464 29° Northeast 441 507 41,000  Level Washington Center
Sat 09:04:38 PM 34.3386 -80.1744 30° Northeast 434 499 41,000 -202 Level Washington Center
Sat 09:05:40 PM 34.4456 -80.0997 30° Northeast 440 506 40,600 -694 Descending Washington Center
Sat 09:06:39 PM 34.5506 -80.0300 29° Northeast 434 499 39,600 -807 Descending Washington Center
Sat 09:07:39 PM 34.6619 -79.9525 30° Northeast 440 506 39,000 -295 Descending Washington Center
Sat 09:08:41 PM 34.7711 -79.8775 29° Northeast 440 506 39,000  Level Washington Center
Sat 09:09:39 PM 34.8822 -79.8000 30° Northeast 445 512 39,000  Level Washington Center
Sat 09:10:39 PM 34.9914 -79.7219 30° Northeast 450 518 39,000  Level Washington Center
Sat 09:11:40 PM 35.1006 -79.6461 30° Northeast 450 518 39,000  Level Washington Center
Sat 09:12:39 PM 35.2072 -79.5703 30° Northeast 445 512 39,000  Level Washington Center
Sat 09:13:41 PM 35.3100 -79.4939 31° Northeast 440 506 39,000  Level Washington Center
Sat 09:14:41 PM 35.4167 -79.4175 30° Northeast 440 506 39,000  Level Washington Center
Sat 09:15:39 PM 35.5236 -79.3411 30° Northeast 433 498 39,000  Level Washington Center
Sat 09:16:39 PM 35.6281 -79.2667 30° Northeast 433 498 39,000  Level Washington Center
Sat 09:17:39 PM 35.7306 -79.1897 31° Northeast 433 498 39,000 -198 Level Washington Center
Sat 09:18:40 PM 35.8392 -79.1125 30° Northeast 438 504 38,600 -689 Descending Washington Center
Sat 09:19:41 PM 35.9439 -79.0325 32° Northeast 433 498 37,600 -1,664 Descending Washington Center
Sat 09:20:39 PM 36.0483 -78.9547 31° Northeast 438 504 35,300 -2,492 Descending Washington Center
Sat 09:21:39 PM 36.1592 -78.8747 30° Northeast 438 504 32,700 -2,678 Descending Washington Center
Sat 09:22:40 PM 36.2678 -78.7942 31° Northeast 443 510 29,900 -2,678 Descending Washington Center
Sat 09:23:40 PM 36.3719 -78.7158 31° Northeast 443 510 27,300 -1,450 Descending Washington Center
Sat 09:24:40 PM 36.4764 -78.6347 32° Northeast 443 510 27,000 -150 Descending Washington Center
Sat 09:25:40 PM 36.5847 -78.5536 31° Northeast 438 504 27,000 -149 Level Washington Center
Sat 09:26:41 PM 36.6847 -78.4747 32° Northeast 444 511 26,700 -650 Descending Washington Center
Sat 09:27:40 PM 36.8058 -78.3858 30° Northeast 454 522 25,700 -1,100 Descending Washington Center
Sat 09:28:41 PM 36.9119 -78.3039 32° Northeast 454 522 24,500 -1,311 Descending Washington Center
Sat 09:29:39 PM 37.0117 -78.2294 31° Northeast 459 528 23,100 -1,200 Descending Washington Center
Sat 09:30:41 PM 37.1136 -78.1494 32° Northeast 450 518 22,100 -550 Descending Washington Center
Sat 09:31:39 PM 37.2153 -78.0719 31° Northeast 432 497 22,000 -51 Descending Washington Center
Sat 09:32:39 PM 37.3169 -77.9944 31° Northeast 426 490 22,000  Level Washington Center
Sat 09:33:39 PM 37.4144 -77.9164 32° Northeast 421 484 22,000  Level Washington Center
Sat 09:34:41 PM 37.5097 -77.8433 31° Northeast 416 479 22,000  Level Washington Center
Sat 09:35:39 PM 37.6111 -77.7783 27° Northeast 411 473 22,000 -706 Level Washington Center
Sat 09:36:40 PM 37.7081 -77.7233 24° Northeast 388 447 20,600 -1,721 Descending Washington Center
Sat 09:37:41 PM 37.8069 -77.6656 25° Northeast 382 440 18,500 -2,100 Descending Washington Center
Sat 09:38:40 PM 37.8997 -77.6128 24° Northeast 382 440 16,400 -2,269 Descending Washington Center
Sat 09:39:40 PM 37.9903 -77.5572 26° Northeast 370 426 14,000 -2,100 Descending Washington Center
Sat 09:40:40 PM 38.0828 -77.5097 22° Northeast 336 387 12,200 -1,765 Descending Washington Center
Sat 09:41:39 PM 38.1586 -77.4639 25° Northeast 311 358 10,500 -1,200 Descending Washington Center
Sat 09:42:40 PM 38.2322 -77.4208 25° Northeast 293 337 9,800 -1,008 Descending Washington Center
Sat 09:43:38 PM 38.3039 -77.3750 27° Northeast 283 326 8,500 -1,210 Descending Washington Center
Sat 09:44:39 PM 38.3750 -77.3581 11° North 272 313 7,400 -1,091 Descending Washington Center
Sat 09:45:39 PM 38.4481 -77.3625 357° North 260 299 6,300 -893 Descending Washington Center
Sat 09:46:40 PM 38.5208 -77.3642 359° North 255 293 5,600 -600 Descending Washington Center
Sat 09:47:39 PM 38.5939 -77.3686 357° North 255 293 5,100 -691 Descending Washington Center
Sat 09:48:59 PM 38.6833 -77.3667 North 261 300 4,000 -471 Descending Potomac TRACON
Sat 09:49:59 PM 38.7500 -77.3500 11° North 263 303 4,000 -48 Level Potomac TRACON
Sat 09:51:05 PM 38.8500 -77.3500 360° North 262 302 3,900 -182 Descending Potomac TRACON
Sat 09:52:11 PM 38.9167 -77.3500 360° North 258 297 3,600 -496 Descending Potomac TRACON
Sat 09:53:06 PM 38.9833 -77.3500 360° North 237 273 2,900 -408 Descending Potomac TRACON
Sat 09:53:54 PM 39.0167 -77.3500 360° North 206 237 2,900 -316 Level Potomac TRACON
Sat 09:55:00 PM 39.0333 -77.4000 293° West 186 214 2,300 -762 Descending Potomac TRACON
Sat 09:56:00 PM 39.0333 -77.4500 270° West 143 165 1,300 -750 Descending Potomac TRACON
Sat 09:57:00 PM 39.0000 -77.4667 201° Southwest 131 151 800 -500 Descending Potomac TRACON
Sat 09:58:00 PM 38.9474 -77.4599 191° South  Level Estimated
Sat 10:05:00 PM 38.9474 -77.4599 191° South  Level Estimated
Sat 10:06:00 PM 38.9474 -77.4599 191° South  Level Estimated
Sat 10:07:00 PM 38.9474 -77.4599 191° South  Level Estimated
Sat 10:08:00 PM 38.9474 -77.4599 191° South  Level Estimated

Login

Don't have an account? Register now (free) for customized features, flight alerts, and more!